sensor_id;sensor_type;location;lat;lon;timestamp;P1;durP1;ratioP1;P2;durP2;ratioP2
4986;SDS011;12674;51.500;7.552;2023-06-10T00:01:43;11.85;;;6.45;;
4986;SDS011;12674;51.500;7.552;2023-06-10T00:03:49;7.07;;;5.53;;
4986;SDS011;12674;51.500;7.552;2023-06-10T00:05:53;8.80;;;6.15;;
4986;SDS011;12674;51.500;7.552;2023-06-10T00:07:56;8.73;;;5.72;;
4986;SDS011;12674;51.500;7.552;2023-06-10T00:09:59;7.43;;;5.32;;
4986;SDS011;12674;51.500;7.552;2023-06-10T00:12:06;12.93;;;6.95;;
4986;SDS011;12674;51.500;7.552;2023-06-10T00:14:11;7.30;;;5.25;;
4986;SDS011;12674;51.500;7.552;2023-06-10T00:16:15;8.57;;;5.95;;
4986;SDS011;12674;51.500;7.552;2023-06-10T00:18:19;6.65;;;6.05;;
4986;SDS011;12674;51.500;7.552;2023-06-10T00:20:23;9.73;;;6.03;;
4986;SDS011;12674;51.500;7.552;2023-06-10T00:22:27;14.70;;;6.60;;
4986;SDS011;12674;51.500;7.552;2023-06-10T00:24:33;8.88;;;5.80;;
4986;SDS011;12674;51.500;7.552;2023-06-10T00:26:36;6.78;;;6.03;;
4986;SDS011;12674;51.500;7.552;2023-06-10T00:28:39;9.18;;;5.72;;
4986;SDS011;12674;51.500;7.552;2023-06-10T00:30:42;8.65;;;6.32;;
4986;SDS011;12674;51.500;7.552;2023-06-10T00:32:47;10.25;;;6.55;;
4986;SDS011;12674;51.500;7.552;2023-06-10T00:34:50;9.48;;;5.72;;
4986;SDS011;12674;51.500;7.552;2023-06-10T00:36:53;10.27;;;6.30;;
4986;SDS011;12674;51.500;7.552;2023-06-10T00:38:57;11.07;;;6.20;;
4986;SDS011;12674;51.500;7.552;2023-06-10T00:41:00;6.88;;;5.25;;
4986;SDS011;12674;51.500;7.552;2023-06-10T00:43:03;8.88;;;6.15;;
4986;SDS011;12674;51.500;7.552;2023-06-10T00:45:06;8.30;;;6.45;;
4986;SDS011;12674;51.500;7.552;2023-06-10T00:47:10;8.55;;;6.55;;
4986;SDS011;12674;51.500;7.552;2023-06-10T00:49:15;8.77;;;5.95;;
4986;SDS011;12674;51.500;7.552;2023-06-10T00:51:18;10.60;;;6.90;;
4986;SDS011;12674;51.500;7.552;2023-06-10T00:53:22;9.07;;;6.75;;
4986;SDS011;12674;51.500;7.552;2023-06-10T00:55:26;9.00;;;6.97;;
4986;SDS011;12674;51.500;7.552;2023-06-10T00:57:29;12.02;;;6.18;;
4986;SDS011;12674;51.500;7.552;2023-06-10T00:59:33;7.13;;;6.03;;
4986;SDS011;12674;51.500;7.552;2023-06-10T01:01:36;8.13;;;6.07;;
4986;SDS011;12674;51.500;7.552;2023-06-10T01:03:41;10.57;;;6.72;;
4986;SDS011;12674;51.500;7.552;2023-06-10T01:05:45;7.57;;;6.78;;
4986;SDS011;12674;51.500;7.552;2023-06-10T01:08:00;10.80;;;6.78;;
4986;SDS011;12674;51.500;7.552;2023-06-10T01:10:09;8.93;;;7.30;;
4986;SDS011;12674;51.500;7.552;2023-06-10T01:12:16;7.57;;;6.75;;
4986;SDS011;12674;51.500;7.552;2023-06-10T01:14:21;7.57;;;6.45;;
4986;SDS011;12674;51.500;7.552;2023-06-10T01:16:25;7.95;;;6.70;;
4986;SDS011;12674;51.500;7.552;2023-06-10T01:18:29;12.20;;;7.40;;
4986;SDS011;12674;51.500;7.552;2023-06-10T01:20:34;18.58;;;7.28;;
4986;SDS011;12674;51.500;7.552;2023-06-10T01:22:43;12.15;;;7.97;;
4986;SDS011;12674;51.500;7.552;2023-06-10T01:24:47;8.52;;;7.47;;
4986;SDS011;12674;51.500;7.552;2023-06-10T01:26:52;9.18;;;7.82;;
4986;SDS011;12674;51.500;7.552;2023-06-10T01:28:57;8.07;;;6.95;;
4986;SDS011;12674;51.500;7.552;2023-06-10T01:31:04;11.65;;;7.97;;
4986;SDS011;12674;51.500;7.552;2023-06-10T01:33:11;10.02;;;8.00;;
4986;SDS011;12674;51.500;7.552;2023-06-10T01:35:14;11.98;;;7.20;;
4986;SDS011;12674;51.500;7.552;2023-06-10T01:37:18;11.27;;;7.25;;
4986;SDS011;12674;51.500;7.552;2023-06-10T01:39:24;8.02;;;6.90;;
4986;SDS011;12674;51.500;7.552;2023-06-10T01:41:27;9.05;;;7.68;;
4986;SDS011;12674;51.500;7.552;2023-06-10T01:43:32;10.10;;;7.30;;
4986;SDS011;12674;51.500;7.552;2023-06-10T01:45:35;17.17;;;7.82;;
4986;SDS011;12674;51.500;7.552;2023-06-10T01:47:38;11.88;;;8.15;;
4986;SDS011;12674;51.500;7.552;2023-06-10T01:49:41;12.88;;;8.05;;
4986;SDS011;12674;51.500;7.552;2023-06-10T01:51:44;12.40;;;8.50;;
4986;SDS011;12674;51.500;7.552;2023-06-10T01:53:47;8.52;;;7.57;;
4986;SDS011;12674;51.500;7.552;2023-06-10T01:55:51;8.98;;;8.07;;
4986;SDS011;12674;51.500;7.552;2023-06-10T01:57:54;9.50;;;8.20;;
4986;SDS011;12674;51.500;7.552;2023-06-10T01:59:58;11.13;;;8.32;;
4986;SDS011;12674;51.500;7.552;2023-06-10T02:02:00;10.85;;;8.10;;
4986;SDS011;12674;51.500;7.552;2023-06-10T02:04:04;10.77;;;7.95;;
4986;SDS011;12674;51.500;7.552;2023-06-10T02:06:07;8.13;;;7.32;;
4986;SDS011;12674;51.500;7.552;2023-06-10T02:08:10;9.65;;;8.00;;
4986;SDS011;12674;51.500;7.552;2023-06-10T02:10:13;11.40;;;8.30;;
4986;SDS011;12674;51.500;7.552;2023-06-10T02:12:17;9.05;;;7.82;;
4986;SDS011;12674;51.500;7.552;2023-06-10T02:14:20;11.70;;;7.95;;
4986;SDS011;12674;51.500;7.552;2023-06-10T02:16:23;10.60;;;8.27;;
4986;SDS011;12674;51.500;7.552;2023-06-10T02:18:27;10.82;;;8.23;;
4986;SDS011;12674;51.500;7.552;2023-06-10T02:20:30;9.38;;;8.32;;
4986;SDS011;12674;51.500;7.552;2023-06-10T02:22:33;9.65;;;8.75;;
4986;SDS011;12674;51.500;7.552;2023-06-10T02:24:36;10.95;;;8.48;;
4986;SDS011;12674;51.500;7.552;2023-06-10T02:26:40;11.90;;;9.30;;
4986;SDS011;12674;51.500;7.552;2023-06-10T02:28:45;15.07;;;9.82;;
4986;SDS011;12674;51.500;7.552;2023-06-10T02:30:48;14.75;;;9.05;;
4986;SDS011;12674;51.500;7.552;2023-06-10T02:32:52;13.60;;;8.45;;
4986;SDS011;12674;51.500;7.552;2023-06-10T02:34:59;13.15;;;9.48;;
4986;SDS011;12674;51.500;7.552;2023-06-10T02:37:03;10.18;;;9.18;;
4986;SDS011;12674;51.500;7.552;2023-06-10T02:39:06;20.95;;;9.35;;
4986;SDS011;12674;51.500;7.552;2023-06-10T02:41:10;12.38;;;9.68;;
4986;SDS011;12674;51.500;7.552;2023-06-10T02:43:14;13.98;;;9.70;;
4986;SDS011;12674;51.500;7.552;2023-06-10T02:45:19;17.33;;;10.88;;
4986;SDS011;12674;51.500;7.552;2023-06-10T02:47:22;12.60;;;10.23;;
4986;SDS011;12674;51.500;7.552;2023-06-10T02:49:26;12.10;;;9.20;;
4986;SDS011;12674;51.500;7.552;2023-06-10T02:51:30;12.75;;;8.73;;
4986;SDS011;12674;51.500;7.552;2023-06-10T02:53:36;11.48;;;8.45;;
4986;SDS011;12674;51.500;7.552;2023-06-10T02:55:43;9.43;;;8.35;;
4986;SDS011;12674;51.500;7.552;2023-06-10T02:57:49;11.70;;;8.27;;
4986;SDS011;12674;51.500;7.552;2023-06-10T02:59:53;10.63;;;9.02;;
4986;SDS011;12674;51.500;7.552;2023-06-10T03:02:00;9.80;;;8.52;;
4986;SDS011;12674;51.500;7.552;2023-06-10T03:04:07;11.90;;;9.18;;
4986;SDS011;12674;51.500;7.552;2023-06-10T03:06:11;13.45;;;9.32;;
4986;SDS011;12674;51.500;7.552;2023-06-10T03:08:15;10.65;;;7.88;;
4986;SDS011;12674;51.500;7.552;2023-06-10T03:10:19;10.88;;;8.13;;
4986;SDS011;12674;51.500;7.552;2023-06-10T03:12:22;8.98;;;8.00;;
4986;SDS011;12674;51.500;7.552;2023-06-10T03:14:25;9.57;;;8.57;;
4986;SDS011;12674;51.500;7.552;2023-06-10T03:16:28;10.02;;;8.68;;
4986;SDS011;12674;51.500;7.552;2023-06-10T03:18:34;11.85;;;9.18;;
4986;SDS011;12674;51.500;7.552;2023-06-10T03:20:37;13.00;;;9.38;;
4986;SDS011;12674;51.500;7.552;2023-06-10T03:22:43;9.25;;;8.35;;
4986;SDS011;12674;51.500;7.552;2023-06-10T03:24:46;9.77;;;8.77;;
4986;SDS011;12674;51.500;7.552;2023-06-10T03:26:52;10.00;;;8.43;;
4986;SDS011;12674;51.500;7.552;2023-06-10T03:28:55;10.52;;;8.93;;
4986;SDS011;12674;51.500;7.552;2023-06-10T03:30:59;15.30;;;9.00;;
4986;SDS011;12674;51.500;7.552;2023-06-10T03:33:05;10.57;;;9.32;;
4986;SDS011;12674;51.500;7.552;2023-06-10T03:35:10;13.90;;;10.98;;
4986;SDS011;12674;51.500;7.552;2023-06-10T03:37:13;17.60;;;10.93;;
4986;SDS011;12674;51.500;7.552;2023-06-10T03:39:18;14.48;;;10.38;;
4986;SDS011;12674;51.500;7.552;2023-06-10T03:41:21;15.45;;;11.02;;
4986;SDS011;12674;51.500;7.552;2023-06-10T03:43:25;17.55;;;10.85;;
4986;SDS011;12674;51.500;7.552;2023-06-10T03:45:28;14.38;;;10.52;;
4986;SDS011;12674;51.500;7.552;2023-06-10T03:47:33;15.63;;;10.57;;
4986;SDS011;12674;51.500;7.552;2023-06-10T03:49:39;12.65;;;11.40;;
4986;SDS011;12674;51.500;7.552;2023-06-10T03:51:43;17.63;;;11.68;;
4986;SDS011;12674;51.500;7.552;2023-06-10T03:53:48;14.27;;;12.77;;
4986;SDS011;12674;51.500;7.552;2023-06-10T03:55:50;17.08;;;12.45;;
4986;SDS011;12674;51.500;7.552;2023-06-10T03:57:57;25.52;;;12.32;;
4986;SDS011;12674;51.500;7.552;2023-06-10T04:00:00;15.57;;;12.02;;
4986;SDS011;12674;51.500;7.552;2023-06-10T04:02:15;17.15;;;12.80;;
4986;SDS011;12674;51.500;7.552;2023-06-10T04:04:18;21.48;;;12.20;;
4986;SDS011;12674;51.500;7.552;2023-06-10T04:06:21;14.40;;;12.23;;
4986;SDS011;12674;51.500;7.552;2023-06-10T04:08:29;16.15;;;12.43;;
4986;SDS011;12674;51.500;7.552;2023-06-10T04:10:33;14.05;;;12.43;;
4986;SDS011;12674;51.500;7.552;2023-06-10T04:12:37;16.83;;;12.43;;
4986;SDS011;12674;51.500;7.552;2023-06-10T04:14:40;21.15;;;12.77;;
4986;SDS011;12674;51.500;7.552;2023-06-10T04:16:45;15.82;;;11.13;;
4986;SDS011;12674;51.500;7.552;2023-06-10T04:18:48;13.88;;;11.82;;
4986;SDS011;12674;51.500;7.552;2023-06-10T04:20:52;19.52;;;12.27;;
4986;SDS011;12674;51.500;7.552;2023-06-10T04:22:55;20.63;;;12.48;;
4986;SDS011;12674;51.500;7.552;2023-06-10T04:25:00;12.68;;;11.38;;
4986;SDS011;12674;51.500;7.552;2023-06-10T04:27:03;13.95;;;11.48;;
4986;SDS011;12674;51.500;7.552;2023-06-10T04:29:06;15.27;;;11.23;;
4986;SDS011;12674;51.500;7.552;2023-06-10T04:31:09;20.25;;;11.93;;
4986;SDS011;12674;51.500;7.552;2023-06-10T04:33:13;12.93;;;10.25;;
4986;SDS011;12674;51.500;7.552;2023-06-10T04:35:17;14.38;;;11.00;;
4986;SDS011;12674;51.500;7.552;2023-06-10T04:37:21;15.73;;;11.15;;
4986;SDS011;12674;51.500;7.552;2023-06-10T04:39:24;19.48;;;12.20;;
4986;SDS011;12674;51.500;7.552;2023-06-10T04:41:28;12.95;;;10.57;;
4986;SDS011;12674;51.500;7.552;2023-06-10T04:43:31;15.52;;;10.18;;
4986;SDS011;12674;51.500;7.552;2023-06-10T04:45:35;17.35;;;10.43;;
4986;SDS011;12674;51.500;7.552;2023-06-10T04:47:38;15.77;;;11.18;;
4986;SDS011;12674;51.500;7.552;2023-06-10T04:49:41;19.70;;;10.88;;
4986;SDS011;12674;51.500;7.552;2023-06-10T04:51:44;14.13;;;10.55;;
4986;SDS011;12674;51.500;7.552;2023-06-10T04:53:47;19.48;;;9.85;;
4986;SDS011;12674;51.500;7.552;2023-06-10T04:55:51;11.43;;;9.07;;
4986;SDS011;12674;51.500;7.552;2023-06-10T04:57:55;10.15;;;8.18;;
4986;SDS011;12674;51.500;7.552;2023-06-10T04:59:58;11.38;;;9.00;;
4986;SDS011;12674;51.500;7.552;2023-06-10T05:02:02;12.82;;;8.82;;
4986;SDS011;12674;51.500;7.552;2023-06-10T05:04:05;15.48;;;10.15;;
4986;SDS011;12674;51.500;7.552;2023-06-10T05:06:08;15.95;;;9.25;;
4986;SDS011;12674;51.500;7.552;2023-06-10T05:08:11;17.88;;;8.60;;
4986;SDS011;12674;51.500;7.552;2023-06-10T05:10:14;12.63;;;8.10;;
4986;SDS011;12674;51.500;7.552;2023-06-10T05:12:17;9.93;;;8.65;;
4986;SDS011;12674;51.500;7.552;2023-06-10T05:14:22;10.98;;;8.80;;
4986;SDS011;12674;51.500;7.552;2023-06-10T05:16:25;17.60;;;7.53;;
4986;SDS011;12674;51.500;7.552;2023-06-10T05:18:28;9.68;;;7.70;;
4986;SDS011;12674;51.500;7.552;2023-06-10T05:20:31;8.68;;;6.70;;
4986;SDS011;12674;51.500;7.552;2023-06-10T05:22:34;9.60;;;6.85;;
4986;SDS011;12674;51.500;7.552;2023-06-10T05:24:37;12.07;;;6.93;;
4986;SDS011;12674;51.500;7.552;2023-06-10T05:26:40;12.38;;;6.70;;
4986;SDS011;12674;51.500;7.552;2023-06-10T05:28:44;7.57;;;6.20;;
4986;SDS011;12674;51.500;7.552;2023-06-10T05:30:49;9.65;;;6.75;;
4986;SDS011;12674;51.500;7.552;2023-06-10T05:32:52;19.75;;;6.00;;
4986;SDS011;12674;51.500;7.552;2023-06-10T05:34:55;7.60;;;5.55;;
4986;SDS011;12674;51.500;7.552;2023-06-10T05:36:58;9.50;;;6.03;;
4986;SDS011;12674;51.500;7.552;2023-06-10T05:39:01;9.57;;;6.22;;
4986;SDS011;12674;51.500;7.552;2023-06-10T05:41:05;9.32;;;6.45;;
4986;SDS011;12674;51.500;7.552;2023-06-10T05:43:08;12.48;;;6.85;;
4986;SDS011;12674;51.500;7.552;2023-06-10T05:45:12;9.85;;;6.70;;
4986;SDS011;12674;51.500;7.552;2023-06-10T05:47:17;11.30;;;6.90;;
4986;SDS011;12674;51.500;7.552;2023-06-10T05:49:22;8.35;;;6.50;;
4986;SDS011;12674;51.500;7.552;2023-06-10T05:51:25;13.48;;;7.03;;
4986;SDS011;12674;51.500;7.552;2023-06-10T05:53:29;13.95;;;6.30;;
4986;SDS011;12674;51.500;7.552;2023-06-10T05:55:32;12.73;;;7.43;;
4986;SDS011;12674;51.500;7.552;2023-06-10T05:57:36;11.70;;;7.38;;
4986;SDS011;12674;51.500;7.552;2023-06-10T05:59:39;17.85;;;5.90;;
4986;SDS011;12674;51.500;7.552;2023-06-10T06:01:42;16.58;;;7.00;;
4986;SDS011;12674;51.500;7.552;2023-06-10T06:03:46;10.32;;;6.85;;
4986;SDS011;12674;51.500;7.552;2023-06-10T06:05:49;12.27;;;6.20;;
4986;SDS011;12674;51.500;7.552;2023-06-10T06:07:52;8.18;;;6.18;;
4986;SDS011;12674;51.500;7.552;2023-06-10T06:09:56;8.80;;;5.60;;
4986;SDS011;12674;51.500;7.552;2023-06-10T06:11:59;12.90;;;6.07;;
4986;SDS011;12674;51.500;7.552;2023-06-10T06:14:02;15.75;;;6.95;;
4986;SDS011;12674;51.500;7.552;2023-06-10T06:16:05;14.02;;;6.40;;
4986;SDS011;12674;51.500;7.552;2023-06-10T06:18:08;10.18;;;6.40;;
4986;SDS011;12674;51.500;7.552;2023-06-10T06:20:13;11.88;;;6.47;;
4986;SDS011;12674;51.500;7.552;2023-06-10T06:22:20;9.68;;;6.57;;
4986;SDS011;12674;51.500;7.552;2023-06-10T06:24:23;9.82;;;5.85;;
4986;SDS011;12674;51.500;7.552;2023-06-10T06:26:27;9.95;;;6.07;;
4986;SDS011;12674;51.500;7.552;2023-06-10T06:28:30;9.32;;;6.45;;
4986;SDS011;12674;51.500;7.552;2023-06-10T06:30:33;8.00;;;6.25;;
4986;SDS011;12674;51.500;7.552;2023-06-10T06:32:36;8.40;;;6.22;;
4986;SDS011;12674;51.500;7.552;2023-06-10T06:34:39;13.05;;;6.13;;
4986;SDS011;12674;51.500;7.552;2023-06-10T06:36:44;9.43;;;6.00;;
4986;SDS011;12674;51.500;7.552;2023-06-10T06:38:47;12.07;;;6.97;;
4986;SDS011;12674;51.500;7.552;2023-06-10T06:40:50;7.03;;;5.40;;
4986;SDS011;12674;51.500;7.552;2023-06-10T06:42:53;9.02;;;5.97;;
4986;SDS011;12674;51.500;7.552;2023-06-10T06:45:07;10.82;;;5.85;;
4986;SDS011;12674;51.500;7.552;2023-06-10T06:47:10;9.57;;;6.07;;
4986;SDS011;12674;51.500;7.552;2023-06-10T06:49:13;7.35;;;5.20;;
4986;SDS011;12674;51.500;7.552;2023-06-10T06:51:16;9.50;;;5.85;;
4986;SDS011;12674;51.500;7.552;2023-06-10T06:53:21;13.00;;;5.75;;
4986;SDS011;12674;51.500;7.552;2023-06-10T06:55:24;9.20;;;5.30;;
4986;SDS011;12674;51.500;7.552;2023-06-10T06:57:27;15.40;;;5.90;;
4986;SDS011;12674;51.500;7.552;2023-06-10T06:59:30;10.93;;;5.10;;
4986;SDS011;12674;51.500;7.552;2023-06-10T07:01:33;8.93;;;5.43;;
4986;SDS011;12674;51.500;7.552;2023-06-10T07:03:36;8.00;;;5.25;;
4986;SDS011;12674;51.500;7.552;2023-06-10T07:05:39;6.50;;;4.47;;
4986;SDS011;12674;51.500;7.552;2023-06-10T07:07:43;5.50;;;4.63;;
4986;SDS011;12674;51.500;7.552;2023-06-10T07:09:48;7.97;;;5.28;;
4986;SDS011;12674;51.500;7.552;2023-06-10T07:11:51;11.20;;;5.20;;
4986;SDS011;12674;51.500;7.552;2023-06-10T07:13:54;6.75;;;5.07;;
4986;SDS011;12674;51.500;7.552;2023-06-10T07:15:57;6.20;;;4.55;;
4986;SDS011;12674;51.500;7.552;2023-06-10T07:18:00;8.43;;;4.53;;
4986;SDS011;12674;51.500;7.552;2023-06-10T07:20:04;8.30;;;4.57;;
4986;SDS011;12674;51.500;7.552;2023-06-10T07:22:07;11.25;;;4.50;;
4986;SDS011;12674;51.500;7.552;2023-06-10T07:24:10;22.95;;;4.95;;
4986;SDS011;12674;51.500;7.552;2023-06-10T07:26:14;6.93;;;4.13;;
4986;SDS011;12674;51.500;7.552;2023-06-10T07:28:17;4.40;;;4.00;;
4986;SDS011;12674;51.500;7.552;2023-06-10T07:30:23;6.53;;;4.32;;
4986;SDS011;12674;51.500;7.552;2023-06-10T07:32:26;11.18;;;4.10;;
4986;SDS011;12674;51.500;7.552;2023-06-10T07:34:30;5.65;;;4.07;;
4986;SDS011;12674;51.500;7.552;2023-06-10T07:36:33;9.32;;;4.15;;
4986;SDS011;12674;51.500;7.552;2023-06-10T07:38:35;7.40;;;4.57;;
4986;SDS011;12674;51.500;7.552;2023-06-10T07:40:39;7.85;;;4.40;;
4986;SDS011;12674;51.500;7.552;2023-06-10T07:42:43;7.30;;;4.30;;
4986;SDS011;12674;51.500;7.552;2023-06-10T07:44:46;6.07;;;3.83;;
4986;SDS011;12674;51.500;7.552;2023-06-10T07:46:49;7.00;;;3.58;;
4986;SDS011;12674;51.500;7.552;2023-06-10T07:48:53;7.10;;;4.22;;
4986;SDS011;12674;51.500;7.552;2023-06-10T07:50:56;7.07;;;3.70;;
4986;SDS011;12674;51.500;7.552;2023-06-10T07:52:59;8.00;;;3.83;;
4986;SDS011;12674;51.500;7.552;2023-06-10T07:55:02;6.53;;;3.58;;
4986;SDS011;12674;51.500;7.552;2023-06-10T07:57:07;8.32;;;3.80;;
4986;SDS011;12674;51.500;7.552;2023-06-10T07:59:11;8.10;;;4.15;;
4986;SDS011;12674;51.500;7.552;2023-06-10T08:01:14;6.95;;;3.78;;
4986;SDS011;12674;51.500;7.552;2023-06-10T08:03:17;8.60;;;4.20;;
4986;SDS011;12674;51.500;7.552;2023-06-10T08:05:20;7.53;;;4.03;;
4986;SDS011;12674;51.500;7.552;2023-06-10T08:07:23;10.25;;;4.35;;
4986;SDS011;12674;51.500;7.552;2023-06-10T08:09:27;8.00;;;3.72;;
4986;SDS011;12674;51.500;7.552;2023-06-10T08:11:30;9.23;;;3.78;;
4986;SDS011;12674;51.500;7.552;2023-06-10T08:13:33;6.88;;;3.63;;
4986;SDS011;12674;51.500;7.552;2023-06-10T08:15:37;6.07;;;3.95;;
4986;SDS011;12674;51.500;7.552;2023-06-10T08:17:40;7.82;;;3.63;;
4986;SDS011;12674;51.500;7.552;2023-06-10T08:19:43;5.05;;;3.67;;
4986;SDS011;12674;51.500;7.552;2023-06-10T08:21:46;7.70;;;3.38;;
4986;SDS011;12674;51.500;7.552;2023-06-10T08:23:52;8.43;;;4.10;;
4986;SDS011;12674;51.500;7.552;2023-06-10T08:25:55;10.18;;;3.30;;
4986;SDS011;12674;51.500;7.552;2023-06-10T08:27:59;5.38;;;3.67;;
4986;SDS011;12674;51.500;7.552;2023-06-10T08:30:03;11.98;;;4.18;;
4986;SDS011;12674;51.500;7.552;2023-06-10T08:32:08;4.57;;;3.42;;
4986;SDS011;12674;51.500;7.552;2023-06-10T08:34:11;7.38;;;3.78;;
4986;SDS011;12674;51.500;7.552;2023-06-10T08:36:14;15.63;;;4.22;;
4986;SDS011;12674;51.500;7.552;2023-06-10T08:38:17;4.63;;;3.95;;
4986;SDS011;12674;51.500;7.552;2023-06-10T08:40:20;14.27;;;3.63;;
4986;SDS011;12674;51.500;7.552;2023-06-10T08:42:24;7.32;;;3.42;;
4986;SDS011;12674;51.500;7.552;2023-06-10T08:44:31;4.78;;;3.50;;
4986;SDS011;12674;51.500;7.552;2023-06-10T08:46:39;4.63;;;3.60;;
4986;SDS011;12674;51.500;7.552;2023-06-10T08:48:46;6.30;;;3.65;;
4986;SDS011;12674;51.500;7.552;2023-06-10T08:50:52;6.85;;;3.38;;
4986;SDS011;12674;51.500;7.552;2023-06-10T08:52:57;4.72;;;3.47;;
4986;SDS011;12674;51.500;7.552;2023-06-10T08:55:02;5.05;;;3.65;;
4986;SDS011;12674;51.500;7.552;2023-06-10T08:57:07;18.75;;;4.55;;
4986;SDS011;12674;51.500;7.552;2023-06-10T08:59:10;6.35;;;3.97;;
4986;SDS011;12674;51.500;7.552;2023-06-10T09:01:14;9.50;;;4.25;;
4986;SDS011;12674;51.500;7.552;2023-06-10T09:03:18;5.40;;;3.63;;
4986;SDS011;12674;51.500;7.552;2023-06-10T09:05:23;5.80;;;3.65;;
4986;SDS011;12674;51.500;7.552;2023-06-10T09:07:26;6.95;;;3.72;;
4986;SDS011;12674;51.500;7.552;2023-06-10T09:09:29;7.00;;;3.97;;
4986;SDS011;12674;51.500;7.552;2023-06-10T09:11:32;7.38;;;3.83;;
4986;SDS011;12674;51.500;7.552;2023-06-10T09:13:35;7.05;;;3.35;;
4986;SDS011;12674;51.500;7.552;2023-06-10T09:15:39;6.60;;;3.70;;
4986;SDS011;12674;51.500;7.552;2023-06-10T09:17:43;8.52;;;4.53;;
4986;SDS011;12674;51.500;7.552;2023-06-10T09:19:46;7.25;;;3.80;;
4986;SDS011;12674;51.500;7.552;2023-06-10T09:21:51;8.32;;;3.85;;
4986;SDS011;12674;51.500;7.552;2023-06-10T09:23:54;11.90;;;4.20;;
4986;SDS011;12674;51.500;7.552;2023-06-10T09:25:57;6.15;;;4.15;;
4986;SDS011;12674;51.500;7.552;2023-06-10T09:28:01;5.88;;;4.32;;
4986;SDS011;12674;51.500;7.552;2023-06-10T09:30:05;9.65;;;4.70;;
4986;SDS011;12674;51.500;7.552;2023-06-10T09:32:09;7.15;;;4.22;;
4986;SDS011;12674;51.500;7.552;2023-06-10T09:34:13;13.98;;;4.30;;
4986;SDS011;12674;51.500;7.552;2023-06-10T09:36:21;8.85;;;4.25;;
4986;SDS011;12674;51.500;7.552;2023-06-10T09:38:29;13.75;;;4.25;;
4986;SDS011;12674;51.500;7.552;2023-06-10T09:40:32;8.45;;;3.85;;
4986;SDS011;12674;51.500;7.552;2023-06-10T09:42:37;7.60;;;3.95;;
4986;SDS011;12674;51.500;7.552;2023-06-10T09:44:40;5.57;;;3.47;;
4986;SDS011;12674;51.500;7.552;2023-06-10T09:46:44;8.13;;;4.20;;
4986;SDS011;12674;51.500;7.552;2023-06-10T09:48:48;6.57;;;3.80;;
4986;SDS011;12674;51.500;7.552;2023-06-10T09:50:51;6.18;;;4.07;;
4986;SDS011;12674;51.500;7.552;2023-06-10T09:53:02;11.35;;;4.07;;
4986;SDS011;12674;51.500;7.552;2023-06-10T09:55:07;9.73;;;4.15;;
4986;SDS011;12674;51.500;7.552;2023-06-10T09:57:11;6.75;;;3.88;;
4986;SDS011;12674;51.500;7.552;2023-06-10T09:59:14;5.85;;;3.85;;
4986;SDS011;12674;51.500;7.552;2023-06-10T10:01:17;18.35;;;4.05;;
4986;SDS011;12674;51.500;7.552;2023-06-10T10:03:22;8.57;;;5.05;;
4986;SDS011;12674;51.500;7.552;2023-06-10T10:05:25;8.48;;;3.90;;
4986;SDS011;12674;51.500;7.552;2023-06-10T10:07:29;8.15;;;4.78;;
4986;SDS011;12674;51.500;7.552;2023-06-10T10:09:33;9.13;;;4.05;;
4986;SDS011;12674;51.500;7.552;2023-06-10T10:11:36;6.82;;;3.95;;
4986;SDS011;12674;51.500;7.552;2023-06-10T10:13:40;11.27;;;4.50;;
4986;SDS011;12674;51.500;7.552;2023-06-10T10:15:43;9.30;;;3.58;;
4986;SDS011;12674;51.500;7.552;2023-06-10T10:17:49;12.27;;;4.38;;
4986;SDS011;12674;51.500;7.552;2023-06-10T10:19:58;6.13;;;3.63;;
4986;SDS011;12674;51.500;7.552;2023-06-10T10:22:06;9.70;;;4.00;;
4986;SDS011;12674;51.500;7.552;2023-06-10T10:24:12;5.70;;;4.20;;
4986;SDS011;12674;51.500;7.552;2023-06-10T10:26:21;10.02;;;4.20;;
4986;SDS011;12674;51.500;7.552;2023-06-10T10:28:29;7.15;;;4.47;;
4986;SDS011;12674;51.500;7.552;2023-06-10T10:30:39;7.95;;;4.15;;
4986;SDS011;12674;51.500;7.552;2023-06-10T10:32:50;10.40;;;4.60;;
4986;SDS011;12674;51.500;7.552;2023-06-10T10:35:01;7.93;;;4.00;;
4986;SDS011;12674;51.500;7.552;2023-06-10T10:37:08;13.38;;;4.50;;
4986;SDS011;12674;51.500;7.552;2023-06-10T10:39:11;7.35;;;4.60;;
4986;SDS011;12674;51.500;7.552;2023-06-10T10:41:14;8.10;;;4.10;;
4986;SDS011;12674;51.500;7.552;2023-06-10T10:43:27;5.53;;;4.13;;
4986;SDS011;12674;51.500;7.552;2023-06-10T10:45:30;6.22;;;3.97;;
4986;SDS011;12674;51.500;7.552;2023-06-10T10:47:36;9.45;;;4.32;;
4986;SDS011;12674;51.500;7.552;2023-06-10T10:49:40;9.85;;;4.35;;
4986;SDS011;12674;51.500;7.552;2023-06-10T10:51:55;6.88;;;3.88;;
4986;SDS011;12674;51.500;7.552;2023-06-10T10:54:11;5.75;;;4.07;;
4986;SDS011;12674;51.500;7.552;2023-06-10T10:56:15;7.07;;;4.53;;
4986;SDS011;12674;51.500;7.552;2023-06-10T10:58:23;8.20;;;3.80;;
4986;SDS011;12674;51.500;7.552;2023-06-10T11:00:27;11.13;;;3.65;;
4986;SDS011;12674;51.500;7.552;2023-06-10T11:02:32;9.15;;;4.15;;
4986;SDS011;12674;51.500;7.552;2023-06-10T11:04:37;8.00;;;4.32;;
4986;SDS011;12674;51.500;7.552;2023-06-10T11:06:40;7.38;;;4.88;;
4986;SDS011;12674;51.500;7.552;2023-06-10T11:08:55;9.65;;;4.10;;
4986;SDS011;12674;51.500;7.552;2023-06-10T11:11:17;4.88;;;4.07;;
4986;SDS011;12674;51.500;7.552;2023-06-10T11:13:23;7.72;;;4.20;;
4986;SDS011;12674;51.500;7.552;2023-06-10T11:15:28;8.43;;;4.00;;
4986;SDS011;12674;51.500;7.552;2023-06-10T11:17:32;7.68;;;4.53;;
4986;SDS011;12674;51.500;7.552;2023-06-10T11:19:35;5.75;;;3.90;;
4986;SDS011;12674;51.500;7.552;2023-06-10T11:21:58;7.43;;;4.18;;
4986;SDS011;12674;51.500;7.552;2023-06-10T11:24:11;7.65;;;4.38;;
4986;SDS011;12674;51.500;7.552;2023-06-10T11:26:15;5.70;;;3.72;;
4986;SDS011;12674;51.500;7.552;2023-06-10T11:28:19;6.85;;;4.00;;
4986;SDS011;12674;51.500;7.552;2023-06-10T11:30:25;10.75;;;3.85;;
4986;SDS011;12674;51.500;7.552;2023-06-10T11:32:29;6.13;;;4.35;;
4986;SDS011;12674;51.500;7.552;2023-06-10T11:34:33;6.05;;;3.95;;
4986;SDS011;12674;51.500;7.552;2023-06-10T11:36:37;8.35;;;4.20;;
4986;SDS011;12674;51.500;7.552;2023-06-10T11:38:44;10.50;;;4.05;;
4986;SDS011;12674;51.500;7.552;2023-06-10T11:40:47;8.70;;;3.97;;
4986;SDS011;12674;51.500;7.552;2023-06-10T11:42:51;9.82;;;3.95;;
4986;SDS011;12674;51.500;7.552;2023-06-10T11:44:54;14.63;;;4.00;;
4986;SDS011;12674;51.500;7.552;2023-06-10T11:46:58;8.50;;;4.35;;
4986;SDS011;12674;51.500;7.552;2023-06-10T11:49:01;6.50;;;3.90;;
4986;SDS011;12674;51.500;7.552;2023-06-10T11:51:06;7.32;;;4.40;;
4986;SDS011;12674;51.500;7.552;2023-06-10T11:53:09;4.90;;;4.20;;
4986;SDS011;12674;51.500;7.552;2023-06-10T11:55:12;7.75;;;4.30;;
4986;SDS011;12674;51.500;7.552;2023-06-10T11:57:15;8.02;;;3.83;;
4986;SDS011;12674;51.500;7.552;2023-06-10T11:59:18;11.27;;;5.05;;
4986;SDS011;12674;51.500;7.552;2023-06-10T12:01:21;11.23;;;3.85;;
4986;SDS011;12674;51.500;7.552;2023-06-10T12:03:36;18.08;;;3.92;;
4986;SDS011;12674;51.500;7.552;2023-06-10T12:05:40;6.40;;;3.40;;
4986;SDS011;12674;51.500;7.552;2023-06-10T12:07:43;9.40;;;3.58;;
4986;SDS011;12674;51.500;7.552;2023-06-10T12:09:46;5.88;;;4.07;;
4986;SDS011;12674;51.500;7.552;2023-06-10T12:11:49;10.45;;;4.43;;
4986;SDS011;12674;51.500;7.552;2023-06-10T12:13:54;5.05;;;4.05;;
4986;SDS011;12674;51.500;7.552;2023-06-10T12:16:05;10.05;;;4.72;;
4986;SDS011;12674;51.500;7.552;2023-06-10T12:18:11;6.32;;;3.60;;
4986;SDS011;12674;51.500;7.552;2023-06-10T12:20:26;7.32;;;4.00;;
4986;SDS011;12674;51.500;7.552;2023-06-10T12:22:35;11.88;;;4.78;;
4986;SDS011;12674;51.500;7.552;2023-06-10T12:24:43;7.40;;;4.13;;
4986;SDS011;12674;51.500;7.552;2023-06-10T12:26:47;5.20;;;4.05;;
4986;SDS011;12674;51.500;7.552;2023-06-10T12:28:50;10.45;;;4.72;;
4986;SDS011;12674;51.500;7.552;2023-06-10T12:31:05;7.70;;;4.32;;
4986;SDS011;12674;51.500;7.552;2023-06-10T12:33:15;12.02;;;4.85;;
4986;SDS011;12674;51.500;7.552;2023-06-10T12:35:19;8.38;;;3.63;;